createdAt,value
2023-05-15T00:00:17.745Z,7.11
2023-05-15T00:01:17.735Z,6.94
2023-05-15T00:02:17.776Z,6.94
2023-05-15T00:04:17.859Z,6.94
2023-05-15T00:05:17.797Z,7.11
2023-05-15T00:07:17.752Z,6.94
2023-05-15T00:09:17.749Z,7.11
2023-05-15T00:10:17.748Z,6.94
2023-05-15T00:11:17.766Z,6.94
2023-05-15T00:13:17.743Z,6.94
2023-05-15T00:14:17.740Z,6.78
2023-05-15T00:15:17.753Z,6.94
2023-05-15T00:17:17.747Z,6.94
2023-05-15T00:19:17.791Z,6.78
2023-05-15T00:20:17.754Z,6.94
2023-05-15T00:21:17.778Z,7.11
2023-05-15T00:22:17.743Z,6.94
2023-05-15T00:23:17.757Z,7.11
2023-05-15T00:24:17.739Z,7.11
2023-05-15T00:25:17.745Z,6.94
2023-05-15T00:26:17.741Z,6.94
2023-05-15T00:27:17.746Z,6.78
2023-05-15T00:28:17.770Z,6.94
2023-05-15T00:29:17.755Z,6.78
2023-05-15T00:30:17.748Z,7.11
2023-05-15T00:31:17.896Z,6.78
2023-05-15T00:32:17.751Z,7.11
2023-05-15T00:33:17.757Z,6.78
2023-05-15T00:34:17.762Z,6.94
2023-05-15T00:35:17.775Z,6.78
2023-05-15T00:36:17.775Z,6.78
2023-05-15T00:37:17.776Z,6.67
2023-05-15T00:39:17.761Z,6.5
2023-05-15T00:40:17.751Z,6.94
2023-05-15T00:41:17.767Z,6.94
2023-05-15T00:42:17.750Z,6.94
2023-05-15T00:43:17.775Z,6.94
2023-05-15T00:44:17.770Z,6.78
2023-05-15T00:46:17.766Z,7.11
2023-05-15T00:47:17.826Z,7.11
2023-05-15T00:48:17.775Z,6.78
2023-05-15T00:49:17.781Z,7.11
2023-05-15T00:51:17.770Z,6.5
2023-05-15T00:53:17.791Z,7.11
2023-05-15T00:55:17.774Z,6.78
2023-05-15T00:56:17.773Z,6.67
2023-05-15T00:57:17.771Z,6.67
2023-05-15T00:59:17.773Z,6.39
2023-05-15T01:00:17.766Z,6.67
2023-05-15T01:01:17.851Z,6.78
2023-05-15T01:02:17.775Z,6.67
2023-05-15T01:03:17.790Z,6.67
2023-05-15T01:04:17.767Z,6.78
2023-05-15T01:05:17.758Z,6.78
2023-05-15T01:06:17.774Z,6.67
2023-05-15T01:07:17.784Z,6.67
2023-05-15T01:08:17.766Z,6.78
2023-05-15T01:09:17.797Z,6.78
2023-05-15T01:11:17.770Z,6.5
2023-05-15T01:12:17.780Z,6.67
2023-05-15T01:13:17.779Z,6.67
2023-05-15T01:15:17.795Z,6.78
2023-05-15T01:16:17.792Z,6.67
2023-05-15T01:18:17.854Z,6.67
2023-05-15T01:19:17.894Z,6.22
2023-05-15T01:21:17.797Z,6.94
2023-05-15T01:22:17.796Z,6.67
2023-05-15T01:24:17.819Z,6.67
2023-05-15T01:25:17.830Z,6.67
2023-05-15T01:27:17.810Z,6.67
2023-05-15T01:28:17.812Z,6.67
2023-05-15T01:29:17.831Z,6.39
2023-05-15T01:31:17.818Z,6.67
2023-05-15T01:32:19.182Z,6.67
2023-05-15T01:33:17.827Z,6.5
2023-05-15T01:34:17.818Z,6.67
2023-05-15T01:36:17.812Z,6.67
2023-05-15T01:37:17.808Z,6.5
2023-05-15T01:38:17.826Z,6.67
2023-05-15T01:39:17.821Z,6.67
2023-05-15T01:40:17.831Z,6.67
2023-05-15T01:41:17.863Z,6.5
2023-05-15T01:43:17.818Z,6.67
2023-05-15T01:44:17.832Z,6.67
2023-05-15T01:45:17.812Z,6.67
2023-05-15T01:46:17.887Z,6.39
2023-05-15T01:47:17.836Z,6.39
2023-05-15T01:48:17.823Z,6.67
2023-05-15T01:49:17.836Z,6.67
2023-05-15T01:50:17.836Z,6.67
2023-05-15T01:52:17.854Z,6.78
2023-05-15T01:53:17.851Z,6.39
2023-05-15T01:54:17.836Z,6.67
2023-05-15T01:55:17.863Z,6.67
2023-05-15T01:57:17.858Z,6.67
2023-05-15T01:59:17.863Z,6.5
2023-05-15T02:00:17.905Z,6.67
2023-05-15T02:01:17.895Z,6.67
2023-05-15T02:02:17.857Z,6.67
2023-05-15T02:04:17.853Z,6.78
2023-05-15T02:05:17.844Z,6.78
2023-05-15T02:06:17.855Z,6.67
2023-05-15T02:07:17.842Z,6.67
2023-05-15T02:08:17.861Z,6.78
2023-05-15T02:10:17.861Z,6.5
2023-05-15T02:11:17.857Z,6.67
2023-05-15T02:12:17.854Z,6.5
2023-05-15T02:13:17.885Z,6.78
2023-05-15T02:14:17.861Z,6.94
2023-05-15T02:15:17.869Z,6.39
2023-05-15T02:16:17.959Z,6.67
2023-05-15T02:18:17.862Z,6.67
2023-05-15T02:19:17.900Z,6.67
2023-05-15T02:20:17.861Z,6.78
2023-05-15T02:21:17.870Z,6.67
2023-05-15T02:23:17.875Z,6.67
2023-05-15T02:24:17.885Z,6.67
2023-05-15T02:25:17.888Z,6.5
2023-05-15T02:26:17.885Z,6.78
2023-05-15T02:27:17.897Z,6.78
2023-05-15T02:29:17.912Z,6.5
2023-05-15T02:31:17.903Z,6.67
2023-05-15T02:32:17.935Z,6.5
2023-05-15T02:33:17.885Z,6.67
2023-05-15T02:34:17.875Z,6.78
2023-05-15T02:35:17.866Z,6.67
2023-05-15T02:36:17.879Z,6.22
2023-05-15T02:37:17.909Z,6.5
2023-05-15T02:38:17.885Z,6.67
2023-05-15T02:39:17.896Z,6.67
2023-05-15T02:40:17.884Z,6.5
2023-05-15T02:41:17.894Z,6.5
2023-05-15T02:42:17.889Z,6.78
2023-05-15T02:43:17.888Z,6.67
2023-05-15T02:44:17.893Z,6.78
2023-05-15T02:45:17.925Z,6.67
2023-05-15T02:46:18.041Z,6.67
2023-05-15T02:47:17.890Z,6.67
2023-05-15T02:48:17.888Z,6.67
2023-05-15T02:49:17.898Z,6.5
2023-05-15T02:51:17.904Z,6.67
2023-05-15T02:52:17.893Z,6.67
2023-05-15T02:53:17.906Z,6.67
2023-05-15T02:55:17.911Z,6.39
2023-05-15T02:56:17.912Z,6.5
2023-05-15T02:58:17.916Z,6.67
2023-05-15T03:00:17.935Z,6.67
2023-05-15T03:01:17.948Z,6.67
2023-05-15T03:03:17.911Z,6.67
2023-05-15T03:04:17.919Z,6.78
2023-05-15T03:05:17.903Z,6.67
2023-05-15T03:06:17.921Z,6.39
2023-05-15T03:07:17.910Z,6.39
2023-05-15T03:08:17.908Z,6.5
2023-05-15T03:09:17.930Z,6.67
2023-05-15T03:11:17.925Z,6.5
2023-05-15T03:13:17.933Z,6.5
2023-05-15T03:14:17.917Z,6.67
2023-05-15T03:15:17.925Z,6.67
2023-05-15T03:17:17.988Z,6.5
2023-05-15T03:19:17.945Z,6.5
2023-05-15T03:20:17.939Z,6.5
2023-05-15T03:22:17.929Z,6.5
2023-05-15T03:23:17.921Z,6.5
2023-05-15T03:24:17.935Z,6.67
2023-05-15T03:25:17.957Z,6.5
2023-05-15T03:27:17.952Z,6.67
2023-05-15T03:28:17.945Z,6.67
2023-05-15T03:29:17.943Z,6.39
2023-05-15T03:31:17.998Z,6.39
2023-05-15T03:32:17.947Z,6.67
2023-05-15T03:33:17.964Z,6.39
2023-05-15T03:35:17.950Z,6.5
2023-05-15T03:36:17.965Z,6.67
2023-05-15T03:38:17.971Z,6.67
2023-05-15T03:39:17.944Z,6.22
2023-05-15T03:40:17.957Z,6.67
2023-05-15T03:42:17.951Z,6.67
2023-05-15T03:43:17.962Z,6.67
2023-05-15T03:45:17.968Z,6.5
2023-05-15T03:46:17.971Z,6.67
2023-05-15T03:47:17.963Z,6.39
2023-05-15T03:49:17.990Z,6.67
2023-05-15T03:50:17.948Z,6.67
2023-05-15T03:51:17.956Z,6.5
2023-05-15T03:52:17.961Z,6.67
2023-05-15T03:54:17.964Z,6.39
2023-05-15T03:55:17.973Z,6.67
2023-05-15T03:56:17.980Z,6.67
2023-05-15T03:57:17.954Z,6.67
2023-05-15T03:58:17.970Z,6.67
2023-05-15T03:59:17.975Z,6.67
2023-05-15T04:00:19.096Z,6.67
2023-05-15T04:01:17.976Z,6.5
2023-05-15T04:02:18.021Z,6.67
2023-05-15T04:04:17.977Z,6.39
2023-05-15T04:05:18.030Z,6.67
2023-05-15T04:06:17.971Z,6.67
2023-05-15T04:07:17.983Z,6.67
2023-05-15T04:09:17.986Z,6.67
2023-05-15T04:10:17.985Z,6.78
2023-05-15T04:11:17.979Z,6.78
2023-05-15T04:12:17.987Z,6.67
2023-05-15T04:13:17.980Z,6.94
2023-05-15T04:14:17.995Z,6.78
2023-05-15T04:16:18.016Z,6.67
2023-05-15T04:17:18.039Z,6.78
2023-05-15T04:19:18.162Z,6.94
2023-05-15T04:20:17.986Z,6.67
2023-05-15T04:21:18.018Z,6.78
2023-05-15T04:23:18.008Z,6.67
2023-05-15T04:24:18.000Z,6.67
2023-05-15T04:26:17.994Z,6.94
2023-05-15T04:27:18.002Z,6.67
2023-05-15T04:28:18.002Z,6.94
2023-05-15T04:29:17.995Z,6.67
2023-05-15T04:30:18.000Z,6.78
2023-05-15T04:31:17.992Z,6.78
2023-05-15T04:32:18.030Z,6.78
2023-05-15T04:33:18.005Z,6.78
2023-05-15T04:34:18.005Z,6.94
2023-05-15T04:36:18.003Z,6.78
2023-05-15T04:37:18.033Z,7.11
2023-05-15T04:39:17.996Z,7.11
2023-05-15T04:40:18.011Z,6.94
2023-05-15T04:41:18.010Z,7.11
2023-05-15T04:42:18.007Z,6.94
2023-05-15T04:43:18.036Z,6.78
2023-05-15T04:45:18.029Z,7.11
2023-05-15T04:46:18.065Z,6.94
2023-05-15T04:48:18.028Z,6.94
2023-05-15T04:50:18.017Z,6.94
2023-05-15T04:51:18.021Z,7.11
2023-05-15T04:52:18.012Z,6.67
2023-05-15T04:53:18.048Z,6.67
2023-05-15T04:54:18.025Z,7.11
2023-05-15T04:55:18.015Z,6.78
2023-05-15T04:56:18.023Z,6.78
2023-05-15T04:57:18.025Z,6.94
2023-05-15T04:59:18.031Z,7.11
2023-05-15T05:00:18.020Z,7.11
2023-05-15T05:02:18.027Z,6.94
2023-05-15T05:03:18.096Z,6.94
2023-05-15T05:04:18.060Z,6.78
2023-05-15T05:05:18.033Z,6.5
2023-05-15T05:06:18.025Z,6.94
2023-05-15T05:07:18.033Z,7.11
2023-05-15T05:09:18.069Z,7.11
2023-05-15T05:11:18.043Z,7.11
2023-05-15T05:13:18.035Z,6.5
2023-05-15T05:14:18.051Z,7.11
2023-05-15T05:15:18.026Z,6.94
2023-05-15T05:16:18.079Z,6.94
2023-05-15T05:17:18.041Z,7.11
2023-05-15T05:18:18.041Z,6.5
2023-05-15T05:19:18.100Z,7.11
2023-05-15T05:20:18.035Z,6.67
2023-05-15T05:21:18.043Z,6.67
2023-05-15T05:23:18.044Z,6.94
2023-05-15T05:24:18.061Z,6.67
2023-05-15T05:25:18.080Z,6.94
2023-05-15T05:26:18.038Z,6.78
2023-05-15T05:27:18.042Z,6.94
2023-05-15T05:28:18.041Z,6.94
2023-05-15T05:29:18.047Z,6.94
2023-05-15T05:31:18.081Z,7.11
2023-05-15T05:32:18.064Z,7.39
2023-05-15T05:33:18.054Z,7.39
2023-05-15T05:34:18.056Z,7.11
2023-05-15T05:35:18.048Z,7.39
2023-05-15T05:37:18.047Z,7.22
2023-05-15T05:39:18.039Z,7.5
2023-05-15T05:40:18.041Z,7.5
2023-05-15T05:41:18.109Z,7.39
2023-05-15T05:42:18.050Z,7.39
2023-05-15T05:43:18.044Z,7.5
2023-05-15T05:44:18.059Z,7.5
2023-05-15T05:45:18.050Z,6.94
2023-05-15T05:46:18.085Z,7.11
2023-05-15T05:47:18.151Z,7.39
2023-05-15T05:48:18.068Z,7.22
2023-05-15T05:50:18.050Z,7.78
2023-05-15T05:52:18.046Z,7.5
2023-05-15T05:53:18.052Z,7.5
2023-05-15T05:55:18.063Z,7.5
2023-05-15T05:56:18.061Z,7.5
2023-05-15T05:57:18.140Z,7.22
2023-05-15T05:58:24.798Z,7.22
2023-05-15T05:59:18.057Z,7.39
2023-05-15T06:00:18.054Z,7.5
2023-05-15T06:01:18.054Z,7.5
2023-05-15T06:02:18.078Z,7.39
2023-05-15T06:03:18.136Z,7.5
2023-05-15T06:04:18.363Z,7.67
2023-05-15T06:05:18.054Z,7.5
2023-05-15T06:06:18.063Z,7.67
2023-05-15T06:07:18.065Z,7.39
2023-05-15T06:08:18.077Z,6.94
2023-05-15T06:10:18.062Z,7.5
2023-05-15T06:11:18.074Z,7.39
2023-05-15T06:13:18.121Z,7.22
2023-05-15T06:15:18.083Z,7.78
2023-05-15T06:16:18.082Z,7.94
2023-05-15T06:17:18.089Z,7.67
2023-05-15T06:18:18.082Z,7.78
2023-05-15T06:20:18.079Z,7.5
2023-05-15T06:22:18.083Z,7.5
2023-05-15T06:24:18.074Z,7.39
2023-05-15T06:25:18.104Z,7.39
2023-05-15T06:27:18.065Z,7.5
2023-05-15T06:28:18.095Z,7.5
2023-05-15T06:29:18.156Z,7.78
2023-05-15T06:31:18.171Z,7.67
2023-05-15T06:33:18.110Z,7.5
2023-05-15T06:34:18.098Z,7.5
2023-05-15T06:35:18.078Z,7.5
2023-05-15T06:36:18.109Z,7.39
2023-05-15T06:37:18.092Z,7.39
2023-05-15T06:38:18.092Z,7.11
2023-05-15T06:39:18.092Z,7.67
2023-05-15T06:40:18.102Z,7.39
2023-05-15T06:42:18.101Z,7.5
2023-05-15T06:43:18.085Z,7.22
2023-05-15T06:44:18.105Z,7.78
2023-05-15T06:45:18.173Z,7.5
2023-05-15T06:46:18.128Z,7.5
2023-05-15T06:47:18.115Z,7.67
2023-05-15T06:48:18.134Z,7.22
2023-05-15T06:49:18.110Z,7.5
2023-05-15T06:51:18.114Z,7.67
2023-05-15T06:52:18.124Z,7.78
2023-05-15T06:53:18.113Z,7.67
2023-05-15T06:54:18.101Z,7.67
2023-05-15T06:55:18.139Z,7.78
2023-05-15T06:56:18.125Z,7.78
2023-05-15T06:58:18.166Z,7.39
2023-05-15T06:59:18.121Z,7.5
2023-05-15T07:00:18.110Z,7.5
2023-05-15T07:01:18.383Z,7.94
2023-05-15T07:03:18.122Z,7.5
2023-05-15T07:04:18.137Z,7.22
2023-05-15T07:06:18.141Z,7.39
2023-05-15T07:07:18.131Z,7.5
2023-05-15T07:08:18.137Z,7.67
2023-05-15T07:09:18.158Z,7.5
2023-05-15T07:10:18.136Z,7.67
2023-05-15T07:11:18.130Z,7.5
2023-05-15T07:12:18.147Z,7.5
2023-05-15T07:13:18.137Z,7.67
2023-05-15T07:14:18.131Z,7.78
2023-05-15T07:15:18.161Z,7.78
2023-05-15T07:17:18.171Z,7.5
2023-05-15T07:19:18.191Z,7.5
2023-05-15T07:20:18.157Z,7.5
2023-05-15T07:22:18.144Z,7.67
2023-05-15T07:23:18.138Z,7.94
2023-05-15T07:24:18.140Z,7.78
2023-05-15T07:25:18.140Z,8.11
2023-05-15T07:26:27.874Z,7.94
2023-05-15T07:27:18.143Z,7.94
2023-05-15T07:28:18.181Z,7.94
2023-05-15T07:30:18.145Z,7.94
2023-05-15T07:31:18.191Z,7.94
2023-05-15T07:32:18.171Z,7.78
2023-05-15T07:33:18.181Z,7.5
2023-05-15T07:35:18.156Z,7.67
2023-05-15T07:36:18.165Z,7.67
2023-05-15T07:38:18.193Z,7.5
2023-05-15T07:40:18.152Z,8.11
2023-05-15T07:41:18.161Z,8.39
2023-05-15T07:42:18.154Z,7.94
2023-05-15T07:43:18.169Z,8.39
2023-05-15T07:44:18.180Z,8.39
2023-05-15T07:45:18.191Z,8.39
2023-05-15T07:46:18.184Z,8.78
2023-05-15T07:47:18.174Z,8.39
2023-05-15T07:49:18.192Z,8.39
2023-05-15T07:50:18.156Z,8.5
2023-05-15T07:51:18.168Z,7.94
2023-05-15T07:52:18.170Z,8.28
2023-05-15T07:54:18.173Z,8.39
2023-05-15T07:55:18.185Z,8.39
2023-05-15T07:56:18.172Z,8.39
2023-05-15T07:58:18.172Z,8.39
2023-05-15T07:59:18.193Z,7.78
2023-05-15T08:00:18.177Z,8.28
2023-05-15T08:01:18.182Z,8.28
2023-05-15T08:02:18.192Z,8.5
2023-05-15T08:03:18.480Z,8.39
2023-05-15T08:04:18.247Z,8.28
2023-05-15T08:05:18.317Z,8.11
2023-05-15T08:07:18.207Z,8.61
2023-05-15T08:08:18.177Z,8.78
2023-05-15T08:09:18.183Z,8.61
2023-05-15T08:10:18.186Z,8.78
2023-05-15T08:11:18.191Z,8.28
2023-05-15T08:12:18.183Z,8.11
2023-05-15T08:13:18.201Z,8.28
2023-05-15T08:14:18.216Z,8.28
2023-05-15T08:16:18.213Z,8.5
2023-05-15T08:17:18.228Z,8.5
2023-05-15T08:19:18.309Z,8.39
2023-05-15T08:20:18.228Z,8.5
2023-05-15T08:21:18.235Z,8.5
2023-05-15T08:23:18.202Z,8.78
2023-05-15T08:25:18.192Z,8.61
2023-05-15T08:26:18.193Z,9.06
2023-05-15T08:27:18.197Z,9.22
2023-05-15T08:28:18.200Z,9.39
2023-05-15T08:29:18.198Z,9.22
2023-05-15T08:31:18.237Z,9.06
2023-05-15T08:32:18.194Z,9.94
2023-05-15T08:33:18.206Z,10.11
2023-05-15T08:34:18.201Z,10.11
2023-05-15T08:36:18.271Z,9.78
2023-05-15T08:37:18.246Z,10.11
2023-05-15T08:39:18.208Z,10.39
2023-05-15T08:40:21.309Z,9.94
2023-05-15T08:41:21.417Z,10.22
2023-05-15T08:42:18.200Z,10.56
2023-05-15T08:43:18.241Z,10.56
2023-05-15T08:44:18.203Z,10.56
2023-05-15T08:45:18.199Z,10.22
2023-05-15T08:46:18.226Z,10.22
2023-05-15T08:47:18.212Z,10.39
2023-05-15T08:48:18.264Z,9.78
2023-05-15T08:49:18.296Z,9.78
2023-05-15T08:50:18.219Z,10.11
2023-05-15T08:51:18.222Z,10.22
2023-05-15T08:52:18.208Z,10.83
2023-05-15T08:53:18.247Z,11
2023-05-15T08:55:18.234Z,11.44
2023-05-15T08:56:18.213Z,11.44
2023-05-15T08:57:18.238Z,10.83
2023-05-15T08:58:18.238Z,10.56
2023-05-15T09:00:18.230Z,10.83
2023-05-15T09:01:18.251Z,11
2023-05-15T09:02:18.231Z,10.56
2023-05-15T09:04:18.229Z,10.39
2023-05-15T09:05:18.228Z,10.39
2023-05-15T09:06:18.228Z,10.22
2023-05-15T09:07:18.236Z,10.39
2023-05-15T09:09:18.263Z,9.78
2023-05-15T09:11:18.243Z,9.22
2023-05-15T09:12:18.223Z,9.78
2023-05-15T09:13:18.252Z,10.39
2023-05-15T09:14:18.748Z,9.67
2023-05-15T09:15:18.342Z,9.78
2023-05-15T09:17:18.236Z,9.67
2023-05-15T09:18:18.247Z,9.5
2023-05-15T09:19:18.337Z,9.5
2023-05-15T09:20:18.343Z,8.94
2023-05-15T09:21:18.255Z,9.22
2023-05-15T09:23:18.245Z,9.22
2023-05-15T09:24:18.307Z,9.39
2023-05-15T09:25:18.259Z,9.39
2023-05-15T09:27:18.262Z,9.39
2023-05-15T09:29:19.010Z,9.94
2023-05-15T09:30:18.275Z,9.78
2023-05-15T09:31:18.262Z,9.5
2023-05-15T09:33:18.256Z,9.5
2023-05-15T09:34:18.271Z,9.39
2023-05-15T09:35:18.254Z,9.67
2023-05-15T09:36:18.259Z,9.67
2023-05-15T09:37:18.259Z,9.94
2023-05-15T09:39:18.258Z,10.11
2023-05-15T09:40:18.292Z,9.94
2023-05-15T09:41:18.302Z,9.67
2023-05-15T09:43:18.263Z,9.67
2023-05-15T09:45:18.279Z,9.5
2023-05-15T09:46:18.373Z,9.67
2023-05-15T09:47:18.472Z,9.78
2023-05-15T09:49:18.321Z,9.94
2023-05-15T09:51:18.275Z,10.11
2023-05-15T09:52:18.264Z,10.22
2023-05-15T09:54:18.275Z,10.11
2023-05-15T09:55:18.285Z,10.22
2023-05-15T09:56:18.275Z,9.94
2023-05-15T09:57:18.302Z,10.11
2023-05-15T09:59:18.272Z,10.39
2023-05-15T10:00:18.303Z,10.39
2023-05-15T10:02:18.273Z,9.78
2023-05-15T10:03:18.271Z,9.67
2023-05-15T10:04:18.272Z,9.22
2023-05-15T10:05:21.610Z,9.67
2023-05-15T10:06:18.348Z,9.67
2023-05-15T10:07:18.276Z,9.78
2023-05-15T10:08:18.293Z,9.5
2023-05-15T10:10:18.287Z,9.67
2023-05-15T10:11:18.279Z,9.67
2023-05-15T10:12:18.296Z,9.78
2023-05-15T10:13:18.306Z,9.5
2023-05-15T10:14:18.275Z,9.56
2023-05-15T10:15:18.283Z,9.67
2023-05-15T10:16:18.345Z,10.11
2023-05-15T10:17:18.281Z,9.5
2023-05-15T10:18:18.282Z,9.94
2023-05-15T10:19:18.310Z,9.67
2023-05-15T10:20:18.286Z,9.5
2023-05-15T10:21:18.321Z,9.67
2023-05-15T10:23:18.305Z,9.67
2023-05-15T10:25:18.283Z,8.94
2023-05-15T10:26:18.293Z,9.22
2023-05-15T10:28:18.286Z,9.5
2023-05-15T10:29:18.313Z,9.22
2023-05-15T10:31:18.305Z,8.94
2023-05-15T10:32:18.291Z,9
2023-05-15T10:33:18.292Z,9.39
2023-05-15T10:35:18.319Z,8.83
2023-05-15T10:36:18.299Z,8.67
2023-05-15T10:38:18.290Z,8.94
2023-05-15T10:39:18.311Z,8.94
2023-05-15T10:40:18.307Z,9.06
2023-05-15T10:41:18.353Z,9.39
2023-05-15T10:42:18.295Z,9.22
2023-05-15T10:43:19.641Z,9.28
2023-05-15T10:44:18.293Z,9.22
2023-05-15T10:45:18.315Z,8.94
2023-05-15T10:47:18.444Z,9.67
2023-05-15T10:48:18.290Z,9.67
2023-05-15T10:49:18.296Z,9.39
2023-05-15T10:50:18.289Z,9.67
2023-05-15T10:51:18.288Z,9.67
2023-05-15T10:52:18.289Z,9.5
2023-05-15T10:53:18.287Z,9.78
2023-05-15T10:54:18.305Z,9.67
2023-05-15T10:56:18.313Z,9.67
2023-05-15T10:57:18.284Z,9.78
2023-05-15T10:58:18.292Z,10.11
2023-05-15T11:00:18.310Z,9.94
2023-05-15T11:01:18.320Z,10.39
2023-05-15T11:03:18.369Z,10.11
2023-05-15T11:04:18.323Z,10.11
2023-05-15T11:05:18.287Z,10.11
2023-05-15T11:06:18.287Z,10.22
2023-05-15T11:07:18.315Z,10.22
2023-05-15T11:08:18.305Z,10.56
2023-05-15T11:10:18.289Z,10.39
2023-05-15T11:11:18.283Z,10.56
2023-05-15T11:12:18.290Z,10.22
2023-05-15T11:13:18.289Z,10.39
2023-05-15T11:14:18.318Z,10.56
2023-05-15T11:15:18.283Z,10.83
2023-05-15T11:16:18.310Z,10.22
2023-05-15T11:17:18.313Z,10.67
2023-05-15T11:19:18.330Z,11
2023-05-15T11:20:18.305Z,11.28
2023-05-15T11:22:18.292Z,11.44
2023-05-15T11:23:18.280Z,11.44
2023-05-15T11:24:18.297Z,11.61
2023-05-15T11:25:18.304Z,11.11
2023-05-15T11:26:18.283Z,11
2023-05-15T11:27:18.289Z,11.11
2023-05-15T11:29:18.303Z,11.28
2023-05-15T11:30:18.498Z,11.44
2023-05-15T11:32:18.288Z,11.61
2023-05-15T11:33:18.314Z,11.44
2023-05-15T11:34:18.289Z,11.72
2023-05-15T11:35:18.285Z,11.44
2023-05-15T11:36:18.306Z,11.61
2023-05-15T11:38:18.293Z,12.28
2023-05-15T11:39:18.296Z,11.83
2023-05-15T11:40:18.319Z,11.61
2023-05-15T11:42:18.353Z,12.28
2023-05-15T11:43:18.323Z,11.83
2023-05-15T11:44:18.297Z,12.72
2023-05-15T11:45:18.351Z,13.17
2023-05-15T11:46:18.350Z,13.33
2023-05-15T11:47:18.321Z,13.67
2023-05-15T11:48:18.433Z,13.67
2023-05-15T11:49:18.333Z,11.83
2023-05-15T11:51:18.355Z,12.72
2023-05-15T11:53:18.317Z,13.67
2023-05-15T11:55:18.320Z,13.67
2023-05-15T11:56:18.366Z,13.67
2023-05-15T11:57:18.316Z,12.28
2023-05-15T11:58:18.358Z,12.56
2023-05-15T11:59:18.332Z,13.5
2023-05-15T12:00:18.323Z,14.06
2023-05-15T12:01:18.333Z,14.89
2023-05-15T12:03:18.427Z,13.67
2023-05-15T12:05:18.370Z,13.67
2023-05-15T12:07:18.327Z,14.28
2023-05-15T12:09:18.326Z,13.78
2023-05-15T12:11:18.328Z,12.89
2023-05-15T12:12:18.319Z,12.28
2023-05-15T12:13:18.345Z,12.44
2023-05-15T12:14:18.355Z,12.72
2023-05-15T12:16:18.413Z,12.33
2023-05-15T12:18:18.342Z,12.61
2023-05-15T12:20:18.454Z,12.33
2023-05-15T12:21:18.374Z,12.78
2023-05-15T12:23:18.335Z,12
2023-05-15T12:24:18.339Z,11.61
2023-05-15T12:25:18.354Z,11.61
2023-05-15T12:27:18.360Z,11.33
2023-05-15T12:28:18.369Z,11.61
2023-05-15T12:30:18.347Z,11.06
2023-05-15T12:31:18.376Z,11.17
2023-05-15T12:33:18.353Z,11.33
2023-05-15T12:34:18.351Z,11.33
2023-05-15T12:35:18.354Z,11.61
2023-05-15T12:36:18.349Z,11.5
2023-05-15T12:37:18.379Z,11.5
2023-05-15T12:39:18.367Z,12
2023-05-15T12:40:18.359Z,12
2023-05-15T12:41:18.368Z,12.33
2023-05-15T12:42:18.361Z,12.5
2023-05-15T12:44:18.396Z,11.78
2023-05-15T12:45:18.368Z,12
2023-05-15T12:46:18.435Z,12.5
2023-05-15T12:48:18.374Z,13.83
2023-05-15T12:49:18.368Z,13.83
2023-05-15T12:50:18.376Z,14.28
2023-05-15T12:52:18.371Z,13.67
2023-05-15T12:53:18.396Z,13.39
2023-05-15T12:54:18.372Z,12.78
2023-05-15T12:55:18.379Z,12.78
2023-05-15T12:56:18.373Z,13.39
2023-05-15T12:57:18.370Z,13.67
2023-05-15T12:58:18.386Z,13.83
2023-05-15T12:59:18.409Z,14.44
2023-05-15T13:00:18.372Z,14.89
2023-05-15T13:01:18.452Z,14.61
2023-05-15T13:03:18.493Z,16.06
2023-05-15T13:05:18.387Z,16.06
2023-05-15T13:06:18.397Z,15.89
2023-05-15T13:07:18.399Z,15.44
2023-05-15T13:09:18.411Z,15.44
2023-05-15T13:10:18.381Z,16.06
2023-05-15T13:11:18.435Z,15.89
2023-05-15T13:12:18.388Z,15.44
2023-05-15T13:14:18.385Z,13.39
2023-05-15T13:16:18.398Z,13.22
2023-05-15T13:17:18.400Z,13.39
2023-05-15T13:18:18.446Z,13.83
2023-05-15T13:19:18.443Z,14.44
2023-05-15T13:20:18.402Z,14.44
2023-05-15T13:21:18.397Z,15.28
2023-05-15T13:23:18.417Z,14.78
2023-05-15T13:24:18.393Z,15.44
2023-05-15T13:25:18.437Z,15.17
2023-05-15T13:27:18.409Z,14
2023-05-15T13:28:18.396Z,13.83
2023-05-15T13:29:18.400Z,13.67
2023-05-15T13:30:18.415Z,14.44
2023-05-15T13:32:18.406Z,15.17
2023-05-15T13:33:18.452Z,15.44
2023-05-15T13:34:18.407Z,15.17
2023-05-15T13:35:18.420Z,15.89
2023-05-15T13:37:18.416Z,15.06
2023-05-15T13:39:18.420Z,16.06
2023-05-15T13:40:18.414Z,15.06
2023-05-15T13:41:18.466Z,15.17
2023-05-15T13:42:18.413Z,15.17
2023-05-15T13:43:18.416Z,14.78
2023-05-15T13:44:18.423Z,14.28
2023-05-15T13:46:18.444Z,14.5
2023-05-15T13:47:18.469Z,15.06
2023-05-15T13:48:18.463Z,15.78
2023-05-15T13:50:18.432Z,15.89
2023-05-15T13:51:18.450Z,15.5
2023-05-15T13:52:18.436Z,15.33
2023-05-15T13:54:18.435Z,16.44
2023-05-15T13:55:19.737Z,16.72
2023-05-15T13:56:18.567Z,15.83
2023-05-15T13:57:18.477Z,16.89
2023-05-15T13:59:18.443Z,16.72
2023-05-15T14:00:18.433Z,17.83
2023-05-15T14:01:18.511Z,15.83
2023-05-15T14:02:18.456Z,15.67
2023-05-15T14:03:18.577Z,15.83
2023-05-15T14:04:18.600Z,15.11
2023-05-15T14:05:18.447Z,14.5
2023-05-15T14:06:18.448Z,15.94
2023-05-15T14:08:18.456Z,16.44
2023-05-15T14:09:18.448Z,16.44
2023-05-15T14:11:18.466Z,17.83
2023-05-15T14:12:18.465Z,18.94
2023-05-15T14:13:18.525Z,18.83
2023-05-15T14:15:18.476Z,18.17
2023-05-15T14:17:18.447Z,16.28
2023-05-15T14:18:18.462Z,15.83
2023-05-15T14:20:18.468Z,16.56
2023-05-15T14:22:18.451Z,18.67
2023-05-15T14:23:18.449Z,18.17
2023-05-15T14:24:18.466Z,18.67
2023-05-15T14:25:18.452Z,18.94
2023-05-15T14:26:18.454Z,18.94
2023-05-15T14:27:18.451Z,18.17
2023-05-15T14:28:18.461Z,17.5
2023-05-15T14:29:18.495Z,17.39
2023-05-15T14:31:18.482Z,17.67
2023-05-15T14:32:18.533Z,17.39
2023-05-15T14:34:18.460Z,17.5
2023-05-15T14:35:18.469Z,18.67
2023-05-15T14:36:18.482Z,18.5
2023-05-15T14:37:18.464Z,18.33
2023-05-15T14:38:18.473Z,19.11
2023-05-15T14:39:18.467Z,18.67
2023-05-15T14:40:18.471Z,19.11
2023-05-15T14:42:18.480Z,20.56
2023-05-15T14:44:18.464Z,18.94
2023-05-15T14:45:18.496Z,18.67
2023-05-15T14:47:18.464Z,18.33
2023-05-15T14:48:18.491Z,17.67
2023-05-15T14:50:18.476Z,16.44
2023-05-15T14:51:19.938Z,16.94
2023-05-15T14:52:18.482Z,17.22
2023-05-15T14:53:18.477Z,16.94
2023-05-15T14:54:18.481Z,16.33
2023-05-15T14:55:18.472Z,16.94
2023-05-15T14:56:18.470Z,18
2023-05-15T14:58:18.493Z,17.89
2023-05-15T14:59:18.486Z,17.39
2023-05-15T15:00:18.500Z,16.78
2023-05-15T15:01:18.516Z,16.44
2023-05-15T15:02:18.476Z,16.44
2023-05-15T15:03:18.570Z,16.33
2023-05-15T15:04:18.525Z,16.33
2023-05-15T15:06:18.511Z,16
2023-05-15T15:08:18.473Z,15.11
2023-05-15T15:09:20.936Z,15.11
2023-05-15T15:10:18.484Z,15.11
2023-05-15T15:12:18.503Z,15.56
2023-05-15T15:14:18.481Z,15.83
2023-05-15T15:16:18.520Z,16
2023-05-15T15:17:18.521Z,15.72
2023-05-15T15:19:20.230Z,15.72
2023-05-15T15:20:18.487Z,16
2023-05-15T15:21:18.499Z,15.72
2023-05-15T15:23:18.503Z,16.44
2023-05-15T15:24:18.490Z,16.78
2023-05-15T15:25:18.502Z,17.89
2023-05-15T15:26:18.532Z,17.56
2023-05-15T15:27:18.494Z,17.72
2023-05-15T15:28:18.515Z,16.94
2023-05-15T15:29:18.501Z,18.33
2023-05-15T15:31:18.931Z,19.11
2023-05-15T15:33:18.523Z,19.61
2023-05-15T15:35:18.520Z,18.33
2023-05-15T15:37:18.509Z,16.94
2023-05-15T15:38:18.498Z,18.83
2023-05-15T15:40:18.502Z,18.33
2023-05-15T15:42:18.504Z,16.33
2023-05-15T15:43:18.514Z,16.44
2023-05-15T15:44:18.492Z,15.56
2023-05-15T15:45:18.492Z,15.11
2023-05-15T15:46:18.579Z,15.39
2023-05-15T15:48:18.534Z,15.39
2023-05-15T15:49:18.522Z,16.17
2023-05-15T15:50:18.494Z,17.39
2023-05-15T15:51:18.518Z,17.11
2023-05-15T15:54:18.506Z,17.89
2023-05-15T15:55:18.498Z,16.78
2023-05-15T15:56:18.515Z,16
2023-05-15T15:57:18.497Z,15.39
2023-05-15T15:58:18.506Z,15.56
2023-05-15T15:59:18.501Z,15.56
2023-05-15T16:00:18.506Z,15.56
2023-05-15T16:01:18.552Z,16
2023-05-15T16:03:18.617Z,18.22
2023-05-15T16:05:18.539Z,18.67
2023-05-15T16:07:18.523Z,19.83
2023-05-15T16:09:18.521Z,19.5
2023-05-15T16:10:18.525Z,19.5
2023-05-15T16:11:18.525Z,18.5
2023-05-15T16:13:18.522Z,17.39
2023-05-15T16:14:18.526Z,16.17
2023-05-15T16:16:18.535Z,15.72
2023-05-15T16:17:18.520Z,15.56
2023-05-15T16:19:18.525Z,15.28
2023-05-15T16:20:18.552Z,14.67
2023-05-15T16:21:18.788Z,14.22
2023-05-15T16:22:18.515Z,14.39
2023-05-15T16:23:18.541Z,14.06
2023-05-15T16:25:18.529Z,14.22
2023-05-15T16:26:18.541Z,14.39
2023-05-15T16:28:18.531Z,14.56
2023-05-15T16:29:18.518Z,14.39
2023-05-15T16:30:18.528Z,14.22
2023-05-15T16:31:18.600Z,14.22
2023-05-15T16:32:18.526Z,14.22
2023-05-15T16:33:18.584Z,14.22
2023-05-15T16:34:18.544Z,14.06
2023-05-15T16:35:18.546Z,14.22
2023-05-15T16:36:18.542Z,13.94
2023-05-15T16:37:18.564Z,14.22
2023-05-15T16:39:18.543Z,14.06
2023-05-15T16:41:18.538Z,14.22
2023-05-15T16:42:18.545Z,13.94
2023-05-15T16:43:18.548Z,14.44
2023-05-15T16:44:18.536Z,14.61
2023-05-15T16:45:18.540Z,14.33